Echo, Utah
Current Conditions -  °F | °C
As of 11:58 PM on Sunday 21 Dec 2014 (Local Time) from KHIF Reporting Station
Overcast Overcast  
Wind Chill: 36°   Ceiling: 4400
Heat Index: 40°   Visibility: 10mi
Dew Point: 34°   Wind: 6mph
Humidity: 77%   Direction: 270°W
Pressure: 30.03"   Gusts: NA
Location:  40.98°N, 111.45°W
Report Text: KHIF 220658Z AUTO 27005KT 10SM BKN044 OVC100 05/01 A3003 RMK AO2 SLP162 T00470009 400790008
Loading
Personal Weather Stations






























Interactive Weather Map New forecast layout! Learn more

10-Day Weather Forecast

Advertisements
Track Severe Weather on mobile